createdAt,value
2023-01-01T00:01:40.574Z,13.70
2023-01-01T00:06:46.577Z,13.78
2023-01-01T00:11:49.785Z,13.80
2023-01-01T00:16:56.095Z,13.70
2023-01-01T00:22:02.184Z,13.80
2023-01-01T00:27:13.339Z,13.80
2023-01-01T00:32:22.396Z,13.84
2023-01-01T00:37:28.628Z,13.80
2023-01-01T00:42:31.755Z,13.80
2023-01-01T00:47:34.820Z,13.80
2023-01-01T00:52:38.021Z,13.72
2023-01-01T00:57:41.806Z,13.80
2023-01-01T01:02:45.366Z,13.80
2023-01-01T01:07:49.029Z,13.70
2023-01-01T01:12:53.522Z,13.80
2023-01-01T01:17:56.668Z,13.78
2023-01-01T01:22:59.885Z,13.80
2023-01-01T01:28:03.089Z,13.80
2023-01-01T01:33:06.808Z,13.80
2023-01-01T01:38:11.349Z,13.84
2023-01-01T01:43:33.195Z,13.90
2023-01-01T01:48:45.068Z,13.90
2023-01-01T01:54:02.962Z,14.00
2023-01-01T01:59:07.096Z,14.00
2023-01-01T02:04:12.194Z,14.00
2023-01-01T02:09:15.459Z,14.00
2023-01-01T02:14:18.679Z,13.90
2023-01-01T02:19:53.005Z,14.00
2023-01-01T02:25:30.952Z,14.00
2023-01-01T02:30:39.226Z,14.00
2023-01-01T02:35:51.926Z,14.00
2023-01-01T02:41:34.339Z,13.98
2023-01-01T02:46:37.820Z,14.00
2023-01-01T02:52:21.071Z,13.90
2023-01-01T02:58:50.809Z,13.90
2023-01-01T03:04:14.085Z,13.90
2023-01-01T03:09:35.726Z,13.80
2023-01-01T03:14:47.944Z,13.80
2023-01-01T03:19:52.671Z,13.80
2023-01-01T03:25:07.881Z,13.80
2023-01-01T03:30:15.929Z,13.80
2023-01-01T03:35:23.846Z,13.78
2023-01-01T03:40:30.968Z,13.80
2023-01-01T03:45:42.366Z,13.80
2023-01-01T03:51:19.430Z,13.70
2023-01-01T03:56:22.444Z,13.80
2023-01-01T04:01:45.432Z,13.70
2023-01-01T04:06:48.823Z,13.70
2023-01-01T04:12:02.188Z,13.70
2023-01-01T04:17:09.330Z,13.70
2023-01-01T04:22:12.470Z,13.62
2023-01-01T04:27:15.576Z,13.70
2023-01-01T04:32:18.721Z,13.70
2023-01-01T04:37:21.787Z,13.66
2023-01-01T04:42:25.025Z,13.60
2023-01-01T04:47:28.410Z,13.60
2023-01-01T04:52:31.529Z,13.52
2023-01-01T04:57:34.625Z,13.50
2023-01-01T05:02:37.847Z,13.50
2023-01-01T05:07:41.145Z,13.50
2023-01-01T05:12:44.143Z,13.40
2023-01-01T05:17:47.358Z,13.40
2023-01-01T05:22:50.459Z,13.40
2023-01-01T05:27:54.003Z,13.40
2023-01-01T05:32:57.593Z,13.30
2023-01-01T05:38:00.619Z,13.22
2023-01-01T05:43:03.713Z,13.20
2023-01-01T05:48:07.381Z,13.20
2023-01-01T05:53:10.431Z,13.12
2023-01-01T05:58:13.536Z,13.10
2023-01-01T06:03:17.359Z,13.08
2023-01-01T06:08:20.467Z,13.10
2023-01-01T06:13:23.499Z,13.10
2023-01-01T06:18:30.905Z,13.00
2023-01-01T06:23:34.880Z,13.10
2023-01-01T06:28:38.621Z,13.10
2023-01-01T06:33:42.667Z,13.10
2023-01-01T06:38:50.457Z,13.04
2023-01-01T06:43:56.327Z,13.00
2023-01-01T06:49:13.261Z,13.10
2023-01-01T06:54:16.377Z,13.10
2023-01-01T06:59:19.612Z,13.10
2023-01-01T07:04:22.698Z,13.10
2023-01-01T07:09:25.815Z,13.10
2023-01-01T07:14:29.006Z,13.10
2023-01-01T07:19:32.121Z,13.14
2023-01-01T07:24:35.216Z,13.10
2023-01-01T07:29:38.219Z,13.10
2023-01-01T07:34:43.862Z,13.10
2023-01-01T07:39:50.575Z,13.20
2023-01-01T07:44:53.786Z,13.30
2023-01-01T07:49:56.926Z,13.30
2023-01-01T07:55:00.003Z,13.30
2023-01-01T08:00:03.156Z,13.30
2023-01-01T08:05:07.341Z,13.50
2023-01-01T08:10:10.651Z,13.52
2023-01-01T08:15:15.735Z,13.66
2023-01-01T08:20:18.818Z,13.70
2023-01-01T08:25:22.837Z,13.80
2023-01-01T08:30:25.953Z,13.88
2023-01-01T08:35:29.172Z,13.90
2023-01-01T08:40:32.253Z,13.90
2023-01-01T08:45:35.390Z,14.00
2023-01-01T08:50:38.470Z,14.04
2023-01-01T08:55:41.576Z,14.10
2023-01-01T09:00:45.214Z,14.20
2023-01-01T09:05:48.911Z,14.30
2023-01-01T09:10:53.181Z,14.40
2023-01-01T09:15:57.853Z,14.50
2023-01-01T09:21:01.198Z,14.50
2023-01-01T09:26:07.812Z,14.40
2023-01-01T09:31:10.913Z,14.40
2023-01-01T09:36:28.441Z,14.40
2023-01-01T09:42:05.850Z,14.50
2023-01-01T09:47:28.617Z,14.50
2023-01-01T09:52:55.678Z,14.50
2023-01-01T09:57:59.406Z,14.60
2023-01-01T10:03:28.593Z,14.60
2023-01-01T10:09:05.208Z,14.68
2023-01-01T10:14:35.773Z,14.70
2023-01-01T10:19:45.799Z,14.70
2023-01-01T10:25:25.918Z,14.70
2023-01-01T10:30:31.075Z,14.70
2023-01-01T10:35:40.691Z,14.74
2023-01-01T10:40:43.831Z,14.80
2023-01-01T10:45:56.232Z,14.80
2023-01-01T10:51:16.352Z,14.90
2023-01-01T10:56:23.769Z,14.90
2023-01-01T11:01:29.813Z,15.00
2023-01-01T11:06:36.988Z,15.10
2023-01-01T11:11:45.225Z,15.10
2023-01-01T11:16:49.706Z,15.10
2023-01-01T11:21:53.133Z,15.10
2023-01-01T11:27:21.124Z,15.10
2023-01-01T11:32:35.890Z,15.10
2023-01-01T11:37:40.148Z,15.20
2023-01-01T11:42:49.603Z,15.20
2023-01-01T11:48:16.742Z,15.20
2023-01-01T11:53:22.659Z,15.20
2023-01-01T11:58:53.688Z,15.20
2023-01-01T12:04:10.140Z,15.20
2023-01-01T12:09:34.914Z,15.20
2023-01-01T12:15:26.249Z,15.10
2023-01-01T12:20:55.465Z,15.10
2023-01-01T12:26:19.776Z,15.10
2023-01-01T12:31:40.724Z,15.10
2023-01-01T12:37:16.179Z,15.00
2023-01-01T12:42:57.151Z,15.00
2023-01-01T12:48:28.330Z,15.00
2023-01-01T12:54:36.341Z,14.92
2023-01-01T12:59:48.553Z,14.90
2023-01-01T13:05:03.243Z,14.90
2023-01-01T13:10:40.659Z,14.80
2023-01-01T13:15:48.682Z,14.80
2023-01-01T13:21:28.435Z,14.80
2023-01-01T13:26:32.761Z,14.72
2023-01-01T13:31:38.730Z,14.70
2023-01-01T13:36:42.082Z,14.70
2023-01-01T13:41:46.407Z,14.60
2023-01-01T13:47:22.266Z,14.60
2023-01-01T13:52:44.105Z,14.56
2023-01-01T13:58:20.738Z,14.50
2023-01-01T14:03:27.442Z,14.48
2023-01-01T14:08:35.297Z,14.40
2023-01-01T14:13:41.907Z,14.40
2023-01-01T14:18:59.878Z,14.30
2023-01-01T14:24:07.676Z,14.30
2023-01-01T14:29:31.775Z,14.30
2023-01-01T14:34:36.107Z,14.20
2023-01-01T14:39:39.213Z,14.20
2023-01-01T14:44:49.903Z,14.20
2023-01-01T14:49:54.563Z,14.16
2023-01-01T14:55:00.816Z,14.10
2023-01-01T15:00:23.279Z,14.10
2023-01-01T15:05:35.560Z,14.00
2023-01-01T15:10:39.435Z,14.00
2023-01-01T15:15:46.740Z,13.90
2023-01-01T15:20:55.124Z,13.80
2023-01-01T15:25:58.265Z,13.80
2023-01-01T15:31:01.588Z,13.70
2023-01-01T15:36:05.160Z,13.60
2023-01-01T15:41:26.494Z,13.50
2023-01-01T15:46:32.446Z,13.40
2023-01-01T15:51:44.219Z,13.40
2023-01-01T15:56:47.438Z,13.40
2023-01-01T16:01:51.704Z,13.30
2023-01-01T16:06:57.810Z,13.20
2023-01-01T16:12:00.942Z,13.18
2023-01-01T16:17:04.411Z,13.10
2023-01-01T16:22:07.973Z,13.10
2023-01-01T16:27:12.229Z,13.00
2023-01-01T16:32:18.930Z,13.00
2023-01-01T16:37:23.661Z,12.90
2023-01-01T16:42:26.945Z,12.80
2023-01-01T16:47:30.064Z,12.80
2023-01-01T16:52:33.809Z,12.80
2023-01-01T16:57:37.727Z,12.68
2023-01-01T17:02:42.184Z,12.60
2023-01-01T17:07:45.648Z,12.50
2023-01-01T17:12:48.858Z,12.44
2023-01-01T17:17:51.968Z,12.40
2023-01-01T17:22:55.391Z,12.40
2023-01-01T17:27:58.413Z,12.30
2023-01-01T17:33:01.426Z,12.20
2023-01-01T17:38:04.861Z,12.30
2023-01-01T17:43:08.008Z,12.30
2023-01-01T17:48:11.230Z,12.20
2023-01-01T17:53:14.467Z,12.10
2023-01-01T17:58:17.834Z,12.10
2023-01-01T18:03:22.743Z,12.00
2023-01-01T18:08:25.994Z,11.90
2023-01-01T18:13:29.917Z,11.86
2023-01-01T18:18:40.716Z,11.80
2023-01-01T18:23:43.822Z,11.90
2023-01-01T18:29:00.348Z,11.80
2023-01-01T18:34:04.642Z,11.70
2023-01-01T18:39:20.471Z,11.70
2023-01-01T18:44:28.664Z,11.76
2023-01-01T18:49:34.386Z,11.72
2023-01-01T18:54:37.471Z,11.70
2023-01-01T18:59:40.888Z,11.52
2023-01-01T19:04:43.983Z,11.50
2023-01-01T19:09:47.128Z,11.42
2023-01-01T19:14:50.723Z,11.40
2023-01-01T19:19:54.544Z,11.30
2023-01-01T19:24:57.763Z,11.20
2023-01-01T19:30:02.290Z,11.20
2023-01-01T19:35:05.843Z,11.12
2023-01-01T19:40:09.952Z,11.02
2023-01-01T19:45:13.348Z,11.00
2023-01-01T19:50:16.657Z,10.90
2023-01-01T19:55:19.775Z,10.90
2023-01-01T20:00:23.950Z,10.90
2023-01-01T20:05:31.719Z,10.90
2023-01-01T20:10:38.433Z,10.80
2023-01-01T20:15:46.518Z,10.80
2023-01-01T20:21:09.084Z,10.80
2023-01-01T20:26:12.297Z,10.78
2023-01-01T20:31:15.452Z,10.70
2023-01-01T20:36:37.456Z,10.68
2023-01-01T20:41:40.567Z,10.70
2023-01-01T20:46:48.129Z,10.62
2023-01-01T20:51:53.543Z,10.60
2023-01-01T20:56:56.748Z,10.70
2023-01-01T21:02:00.090Z,10.70
2023-01-01T21:07:03.501Z,10.70
2023-01-01T21:12:07.902Z,10.60
2023-01-01T21:17:24.931Z,10.60
2023-01-01T21:22:28.237Z,10.60
2023-01-01T21:27:34.435Z,10.68
2023-01-01T21:32:44.778Z,10.70
2023-01-01T21:37:53.129Z,10.64
2023-01-01T21:43:03.198Z,10.60
2023-01-01T21:48:29.015Z,10.50
2023-01-01T21:53:36.881Z,10.60
2023-01-01T21:59:04.366Z,10.60
2023-01-01T22:04:10.737Z,10.54
2023-01-01T22:09:32.020Z,10.50
2023-01-01T22:14:42.955Z,10.32
2023-01-01T22:19:47.261Z,10.24
2023-01-01T22:25:04.279Z,10.10
2023-01-01T22:30:13.552Z,10.10
2023-01-01T22:35:24.643Z,10.10
2023-01-01T22:40:32.944Z,9.90
2023-01-01T22:45:43.587Z,9.80
2023-01-01T22:50:46.764Z,9.70
2023-01-01T22:55:50.178Z,9.70
2023-01-01T23:00:53.286Z,9.70
2023-01-01T23:05:57.621Z,9.80
2023-01-01T23:11:02.695Z,9.80
2023-01-01T23:16:05.900Z,9.80
2023-01-01T23:21:20.043Z,9.80
2023-01-01T23:26:26.935Z,9.80
2023-01-01T23:31:31.843Z,9.80
2023-01-01T23:36:37.900Z,9.90
2023-01-01T23:41:41.070Z,9.90
2023-01-01T23:46:44.842Z,9.90
2023-01-01T23:51:48.204Z,9.80
2023-01-01T23:56:51.317Z,9.72
